Aeroporto :
LOGIN :

Iscrizione | Disclaimer

   EN    FR    IT 

 










Sommario :    VFR   VFR Marginale   IFR   IFR Intensivo   IFR Molto Intensivo
Visibilità : 
Base nubi : 
>= 8 km
>= 3000ft
5 / 8 km
1000 / 3000 ft
1500m / 5 km
500 / 1000 ft
800 / 1500m
200 / 500 ft
< 800m
< 200 ft
Simboli :   Temporali  Nebbia  Neve Forte  Precipitazioni Forti  Vento > 20 kt
SIGMETs :   Varie  Temporali  Ghiacco  Turbolenza  Onda orograficha  Ceneri Vulcaniche






- Altitudine del aeroporto : 453 ft
- Codice IATA : SBK


LFRT - St Brieuc Armor

ULTIMO METAR :
  • 071530Z AUTO 24006KT 180V300 9999 FEW034 SCT050 18/10 Q1021

METARs OBSOLETI :
  • 071500Z AUTO 24010KT 9999 SCT032 SCT050 BKN240 17/11 Q1022
  • 071430Z AUTO 27007KT 240V300 9999 SCT032 SCT042 BKN049 17/11 Q1022
  • 071400Z AUTO 25011KT 9999 BKN032 BKN045 17/10 Q1022
  • 071330Z AUTO 25010KT 210V270 9999 SCT030 SCT036 BKN044 17/10 Q1022
  • 071300Z AUTO 26009KT 9999 FEW029 SCT037 17/10 Q1023

Previsioni scadute.



MetMap, La meteo Aeronautica in un colpo d'occhio ! - Copyright ORBIFLY Dicembre 2007 - Disclaimer

ORBIFLY MET'MAP TEAM :

Programmazione e sviluppo : Alexandra Zaïnal
Concezione : Baudouin d'Aumeries
Supporto tecnico e logistico : Manuel Goepfert
Aiuto : Marc-Olivier Méhu
Aiuto per la traduzione : Arnaldo La Scala




FONTI E CREDITI :

   NOAA